Aviation Digital Data Service (ADDS)

Output produced by TAFs form (2239 UTC 24 April 2014)
found at http://www.aviationweather.gov/adds/tafs/
 
KMDT 242232Z 2423/2518 33006KT P6SM FEW250 
     FM250100 VRB03KT P6SM SKC 
     FM251600 15008KT P6SM SCT250